Time;durP1;ratioP1;P1;durP2;ratioP2;P2;SDS_P1;SDS_P2;PMS_P1;PMS_P2;Temp;Humidity;BMP_temperature;BMP_pressure;BME280_temperature;BME280_humidity;BME280_pressure;Samples;Min_cycle;Max_cycle;Signal;HPM_P1;HPM_P2
2022/07/18 00:00:53;;;;;;;;;;;;;;;19.22;42.43;102320.72;5046184;28;20316;-56
2022/07/18 00:03:18;;;;;;;;;;;;;;;19.21;42.52;102315.50;5050371;28;19983;-54
2022/07/18 00:05:44;;;;;;;;;;;;;;;19.16;42.79;102311.31;5057723;28;19913;-55
2022/07/18 00:08:09;;;;;;;;;;;;;;;19.13;42.62;102316.91;5053650;28;19923;-54
2022/07/18 00:10:34;;;;;;;;;;;;;;;19.10;42.71;102319.78;5056117;28;19923;-54
2022/07/18 00:13:00;;;;;;;;;;;;;;;19.09;42.99;102317.19;5055968;28;19917;-56
2022/07/18 00:15:25;;;;;;;;;;;;;;;19.09;42.83;102318.06;5059751;28;19962;-56
2022/07/18 00:17:50;;;;;;;;;;;;;;;19.07;43.11;102314.66;5050906;28;19960;-56
2022/07/18 00:20:15;;;;;;;;;;;;;;;19.03;43.25;102319.34;5032423;28;19923;-55
2022/07/18 00:22:41;;;;;;;;;;;;;;;19.00;43.33;102322.22;5052912;28;19913;-56
2022/07/18 00:25:06;;;;;;;;;;;;;;;19.00;43.49;102326.69;5054943;28;19986;-56
2022/07/18 00:27:31;;;;;;;;;;;;;;;19.03;43.27;102316.69;5049634;28;19999;-55
2022/07/18 00:29:57;;;;;;;;;;;;;;;19.05;43.24;102316.56;5050186;28;20326;-54
2022/07/18 00:32:22;;;;;;;;;;;;;;;19.07;43.29;102319.09;5055564;28;19912;-55
2022/07/18 00:34:47;;;;;;;;;;;;;;;19.05;43.37;102316.56;5052665;28;19920;-55
2022/07/18 00:37:13;;;;;;;;;;;;;;;19.02;43.33;102322.97;5052913;28;19928;-54
2022/07/18 00:39:38;;;;;;;;;;;;;;;19.02;43.43;102327.44;5050497;28;19924;-55
2022/07/18 00:42:04;;;;;;;;;;;;;;;19.01;43.70;102321.25;5049173;28;19920;-56
2022/07/18 00:44:29;;;;;;;;;;;;;;;18.98;43.68;102320.63;5053304;28;20003;-55
2022/07/18 00:46:56;;;;;;;;;;;;;;;18.99;43.59;102322.31;5056795;28;19928;-56
2022/07/18 00:49:21;;;;;;;;;;;;;;;18.99;43.88;102325.84;5053584;28;20375;-55
2022/07/18 00:51:46;;;;;;;;;;;;;;;18.99;43.70;102332.97;5046423;28;19973;-56
2022/07/18 00:54:12;;;;;;;;;;;;;;;19.00;43.94;102332.00;5056117;28;19978;-56
2022/07/18 00:56:37;;;;;;;;;;;;;;;18.99;43.86;102336.50;5061277;28;19908;-55
2022/07/18 00:59:03;;;;;;;;;;;;;;;18.99;43.75;102335.63;5051440;28;19917;-55
2022/07/18 01:01:43;;;;;;;;;;;;;;;18.98;44.06;102332.13;5048342;28;19908;-55
2022/07/18 01:04:19;;;;;;;;;;;;;;;18.95;43.91;102327.00;5051411;28;20070;-55
2022/07/18 01:06:45;;;;;;;;;;;;;;;18.94;44.17;102329.75;5051277;28;20399;-56
2022/07/18 01:09:10;;;;;;;;;;;;;;;18.92;43.97;102337.00;5054652;28;19920;-56
2022/07/18 01:11:36;;;;;;;;;;;;;;;18.89;44.23;102328.25;5052113;28;20403;-55
2022/07/18 01:14:02;;;;;;;;;;;;;;;18.89;44.13;102332.75;5052566;28;19913;-55
2022/07/18 01:16:28;;;;;;;;;;;;;;;18.87;44.36;102327.50;5047174;28;19999;-55
2022/07/18 01:18:53;;;;;;;;;;;;;;;18.89;44.33;102328.25;5056541;28;20474;-55
2022/07/18 01:21:19;;;;;;;;;;;;;;;18.93;44.28;102325.38;5051113;28;20351;-54
2022/07/18 01:23:44;;;;;;;;;;;;;;;18.95;44.53;102320.84;5051915;28;19920;-52
2022/07/18 01:26:11;;;;;;;;;;;;;;;18.97;44.58;102325.09;5054989;28;19921;-53
2022/07/18 01:28:37;;;;;;;;;;;;;;;18.98;44.44;102328.63;5052282;28;19912;-54
2022/07/18 01:31:02;;;;;;;;;;;;;;;18.95;44.52;102323.50;5045030;28;19920;-53
2022/07/18 01:33:30;;;;;;;;;;;;;;;18.91;44.99;102327.28;5055668;28;20058;-56
2022/07/18 01:35:57;;;;;;;;;;;;;;;18.90;44.86;102326.44;5049588;28;19916;-53
2022/07/18 01:38:22;;;;;;;;;;;;;;;18.89;45.14;102328.25;5046270;28;19920;-55
2022/07/18 01:40:50;;;;;;;;;;;;;;;18.87;45.44;102330.16;5048117;28;20366;-56
2022/07/18 01:43:15;;;;;;;;;;;;;;;18.84;45.56;102325.03;5054621;28;20169;-53
2022/07/18 01:45:40;;;;;;;;;;;;;;;18.82;45.84;102321.63;5053469;28;19917;-54
2022/07/18 01:48:06;;;;;;;;;;;;;;;18.80;45.84;102323.56;5056657;28;20415;-53
2022/07/18 01:50:31;;;;;;;;;;;;;;;18.79;46.21;102310.31;5048335;28;19952;-53
2022/07/18 01:52:57;;;;;;;;;;;;;;;18.78;46.39;102308.59;5050453;28;19916;-54
2022/07/18 01:55:22;;;;;;;;;;;;;;;18.77;46.36;102299.75;5053244;28;19920;-53
2022/07/18 01:57:48;;;;;;;;;;;;;;;18.74;46.52;102298.16;5047438;28;19995;-53
2022/07/18 02:00:13;;;;;;;;;;;;;;;18.69;46.71;102294.94;5049185;28;20000;-53
2022/07/18 02:02:39;;;;;;;;;;;;;;;18.68;46.86;102303.06;5051912;28;19920;-54
2022/07/18 02:05:05;;;;;;;;;;;;;;;18.64;47.13;102306.88;5052047;28;20319;-54
2022/07/18 02:07:30;;;;;;;;;;;;;;;18.58;47.39;102309.00;5058236;28;20371;-52
2022/07/18 02:09:55;;;;;;;;;;;;;;;18.56;47.63;102300.25;5044454;28;19925;-53
2022/07/18 02:12:21;;;;;;;;;;;;;;;18.53;47.83;102305.78;5056974;28;19917;-54
2022/07/18 02:14:46;;;;;;;;;;;;;;;18.49;47.90;102301.63;5054243;28;19916;-53
2022/07/18 02:17:11;;;;;;;;;;;;;;;18.48;48.10;102299.91;5054812;28;19920;-53
2022/07/18 02:19:37;;;;;;;;;;;;;;;18.46;48.17;102299.16;5052160;28;19916;-53
2022/07/18 02:22:02;;;;;;;;;;;;;;;18.45;48.22;102297.44;5056304;28;20456;-54
2022/07/18 02:24:27;;;;;;;;;;;;;;;18.46;48.49;102303.63;5048292;28;19963;-56
2022/07/18 02:26:53;;;;;;;;;;;;;;;18.46;48.40;102293.81;5049711;28;19917;-54
2022/07/18 02:29:18;;;;;;;;;;;;;;;18.48;48.53;102293.72;5050632;28;19924;-53
2022/07/18 02:31:43;;;;;;;;;;;;;;;18.47;48.36;102300.00;5047769;28;20023;-54
2022/07/18 02:34:12;;;;;;;;;;;;;;;18.47;48.54;102294.66;5056151;28;19927;-55
2022/07/18 02:36:38;;;;;;;;;;;;;;;18.47;48.42;102300.88;5047243;28;19913;-55
2022/07/18 02:39:04;;;;;;;;;;;;;;;18.42;48.60;102292.31;5046215;28;20328;-54
2022/07/18 02:41:29;;;;;;;;;;;;;;;18.37;48.68;102297.13;5048459;28;19936;-52
2022/07/18 02:43:54;;;;;;;;;;;;;;;18.31;49.15;102292.19;5053859;28;20454;-55
2022/07/18 02:46:20;;;;;;;;;;;;;;;18.24;49.13;102284.56;5056785;28;19921;-52
2022/07/18 02:48:45;;;;;;;;;;;;;;;18.23;49.15;102285.53;5048013;28;19999;-53
2022/07/18 02:51:10;;;;;;;;;;;;;;;18.21;49.32;102278.59;5047123;28;20383;-55
2022/07/18 02:53:36;;;;;;;;;;;;;;;18.15;49.44;102266.56;5050019;28;19959;-53
2022/07/18 02:56:01;;;;;;;;;;;;;;;18.12;49.55;102269.41;5043179;28;19920;-53
2022/07/18 02:58:26;;;;;;;;;;;;;;;18.15;49.42;102273.69;5049768;28;19952;-55
2022/07/18 03:00:52;;;;;;;;;;;;;;;18.14;49.35;102275.50;5049624;28;19916;-53
2022/07/18 03:03:17;;;;;;;;;;;;;;;18.08;49.76;102282.09;5052930;28;19924;-55
2022/07/18 03:05:42;;;;;;;;;;;;;;;18.05;49.96;102276.09;5052583;28;19932;-55
2022/07/18 03:08:08;;;;;;;;;;;;;;;18.06;49.75;102275.16;5049690;28;20054;-56
2022/07/18 03:10:33;;;;;;;;;;;;;;;18.06;49.80;102275.16;5048554;28;20015;-55
2022/07/18 03:12:58;;;;;;;;;;;;;;;18.02;49.89;102273.63;5053304;28;19985;-53
2022/07/18 03:15:23;;;;;;;;;;;;;;;17.97;50.10;102277.44;5050501;28;20264;-53
2022/07/18 03:17:49;;;;;;;;;;;;;;;17.93;50.05;102277.72;5048308;28;19932;-54
2022/07/18 03:20:14;;;;;;;;;;;;;;;17.93;50.26;102280.38;5051145;28;20304;-53
2022/07/18 03:22:39;;;;;;;;;;;;;;;17.93;50.02;102286.53;5048735;28;19916;-53
2022/07/18 03:25:05;;;;;;;;;;;;;;;17.94;50.21;102285.59;5048260;28;20005;-53
2022/07/18 03:27:30;;;;;;;;;;;;;;;18.00;49.91;102283.53;5044892;28;20363;-53
2022/07/18 03:29:55;;;;;;;;;;;;;;;18.03;50.01;102281.50;5049801;28;19921;-55
2022/07/18 03:32:21;;;;;;;;;;;;;;;18.05;49.88;102284.94;5050538;28;19916;-54
2022/07/18 03:34:46;;;;;;;;;;;;;;;18.04;49.88;102280.56;5048619;28;19920;-55
2022/07/18 03:37:11;;;;;;;;;;;;;;;18.03;50.13;102284.19;5047947;28;19982;-56
2022/07/18 03:39:37;;;;;;;;;;;;;;;18.00;50.00;102297.69;5051032;28;19920;-53
2022/07/18 03:42:02;;;;;;;;;;;;;;;18.01;49.97;102288.75;5044323;28;19913;-53
2022/07/18 03:44:27;;;;;;;;;;;;;;;18.03;50.08;102284.19;5044877;28;19913;-53
2022/07/18 03:46:53;;;;;;;;;;;;;;;18.06;50.08;102280.47;5051234;28;19921;-53
2022/07/18 03:49:19;;;;;;;;;;;;;;;18.10;49.89;102288.16;5051182;28;19930;-53
2022/07/18 03:51:44;;;;;;;;;;;;;;;18.16;49.86;102286.91;5052496;28;19925;-53
2022/07/18 03:54:09;;;;;;;;;;;;;;;18.19;49.91;102285.84;5053805;28;19924;-53
2022/07/18 03:56:35;;;;;;;;;;;;;;;18.22;49.87;102286.53;5029305;28;20384;-53
2022/07/18 03:59:00;;;;;;;;;;;;;;;18.23;50.06;102276.69;5044224;28;20265;-54
2022/07/18 04:01:25;;;;;;;;;;;;;;;18.27;50.08;102278.22;5049288;28;19916;-53
2022/07/18 04:03:51;;;;;;;;;;;;;;;18.28;49.98;102275.44;5051516;28;19952;-53
2022/07/18 04:06:16;;;;;;;;;;;;;;;18.33;49.95;102274.28;5054416;28;19924;-53
2022/07/18 04:08:41;;;;;;;;;;;;;;;18.37;49.96;102281.13;5045109;28;19912;-53
2022/07/18 04:11:07;;;;;;;;;;;;;;;18.40;49.87;102272.91;5052518;28;19923;-56
2022/07/18 04:13:32;;;;;;;;;;;;;;;18.41;49.81;102274.63;5051040;28;19920;-53
2022/07/18 04:15:57;;;;;;;;;;;;;;;18.43;50.04;102278.91;5049991;28;19917;-56
2022/07/18 04:18:22;;;;;;;;;;;;;;;18.46;49.90;102274.31;5047454;28;19932;-53
2022/07/18 04:20:48;;;;;;;;;;;;;;;18.46;50.01;102277.84;5053615;28;19919;-53
2022/07/18 04:23:13;;;;;;;;;;;;;;;18.46;50.25;102277.84;5049489;28;19912;-54
2022/07/18 04:25:39;;;;;;;;;;;;;;;18.46;50.08;102275.16;5048447;28;20011;-53
2022/07/18 04:28:06;;;;;;;;;;;;;;;18.46;50.16;102275.16;5051173;28;19921;-53
2022/07/18 04:30:32;;;;;;;;;;;;;;;18.48;50.03;102265.25;5047614;28;19922;-55
2022/07/18 04:32:57;;;;;;;;;;;;;;;18.51;50.01;102259.72;5051838;28;19961;-54
2022/07/18 04:35:23;;;;;;;;;;;;;;;18.55;50.01;102261.22;5054231;28;19920;-53
2022/07/18 04:37:49;;;;;;;;;;;;;;;18.61;50.09;102264.44;5050124;28;19978;-52
2022/07/18 04:40:15;;;;;;;;;;;;;;;18.63;50.04;102263.34;5033511;28;19936;-56
2022/07/18 04:42:41;;;;;;;;;;;;;;;18.67;50.04;102272.84;5048441;28;19924;-54
2022/07/18 04:45:07;;;;;;;;;;;;;;;18.70;49.66;102271.78;5053010;28;19917;-53
2022/07/18 04:47:32;;;;;;;;;;;;;;;18.74;49.54;102265.28;5031911;28;19920;-55
2022/07/18 04:49:57;;;;;;;;;;;;;;;18.76;49.57;102267.84;5055468;28;19998;-53
2022/07/18 04:52:22;;;;;;;;;;;;;;;18.74;49.76;102259.97;5051577;28;19912;-53
2022/07/18 04:54:48;;;;;;;;;;;;;;;18.76;49.63;102266.03;5057134;28;19962;-54
2022/07/18 04:57:14;;;;;;;;;;;;;;;18.80;49.59;102269.34;5053458;28;20311;-52
2022/07/18 04:59:43;;;;;;;;;;;;;;;18.83;49.19;102264.66;5045092;28;19936;-52
2022/07/18 05:02:08;;;;;;;;;;;;;;;18.91;48.91;102260.63;5044102;28;20379;-53
2022/07/18 05:04:34;;;;;;;;;;;;;;;18.96;49.02;102269.19;5051188;28;19924;-54
2022/07/18 05:06:59;;;;;;;;;;;;;;;18.99;49.04;102268.97;5051479;28;19920;-55
2022/07/18 05:09:25;;;;;;;;;;;;;;;19.04;48.66;102265.03;5052716;28;20019;-53
2022/07/18 05:11:50;;;;;;;;;;;;;;;19.10;48.85;102257.53;5049599;28;20295;-53
2022/07/18 05:14:15;;;;;;;;;;;;;;;19.13;48.67;102260.88;5048127;28;19939;-54
2022/07/18 05:16:41;;;;;;;;;;;;;;;19.17;48.70;102262.34;5047370;28;20019;-54
2022/07/18 05:19:06;;;;;;;;;;;;;;;19.22;48.68;102264.69;5050346;28;19917;-54
2022/07/18 05:21:31;;;;;;;;;;;;;;;19.28;48.50;102263.41;5050254;28;20376;-54
2022/07/18 05:23:57;;;;;;;;;;;;;;;19.31;48.66;102264.03;5047099;28;19917;-52
2022/07/18 05:26:22;;;;;;;;;;;;;;;19.37;48.71;102261.88;5048354;28;19920;-54
2022/07/18 05:28:47;;;;;;;;;;;;;;;19.41;48.86;102258.91;5051461;28;19909;-54
2022/07/18 05:31:13;;;;;;;;;;;;;;;19.46;48.95;102272.75;5048738;28;19916;-52
2022/07/18 05:33:38;;;;;;;;;;;;;;;19.50;48.84;102268.91;5051876;28;19967;-53
2022/07/18 05:36:04;;;;;;;;;;;;;;;19.55;48.71;102267.75;5046798;28;19917;-56
2022/07/18 05:38:29;;;;;;;;;;;;;;;19.60;48.98;102260.22;5053707;28;19916;-53
2022/07/18 05:40:54;;;;;;;;;;;;;;;19.65;48.84;102261.63;5052438;28;20393;-54
2022/07/18 05:43:19;;;;;;;;;;;;;;;19.69;48.79;102256.91;5054173;28;19912;-54
2022/07/18 05:45:45;;;;;;;;;;;;;;;19.73;48.90;102254.88;5060024;28;19920;-56
2022/07/18 05:48:10;;;;;;;;;;;;;;;19.75;49.03;102261.78;5052296;28;19920;-56
2022/07/18 05:50:35;;;;;;;;;;;;;;;19.76;48.91;102265.31;5059227;28;19920;-53
2022/07/18 05:53:01;;;;;;;;;;;;;;;19.74;49.08;102260.06;5029753;28;20386;-53
2022/07/18 05:55:26;;;;;;;;;;;;;;;19.73;48.93;102269.09;5053863;28;19924;-58
2022/07/18 05:57:52;;;;;;;;;;;;;;;19.71;49.06;102260.31;5053342;28;19979;-53
2022/07/18 06:00:18;;;;;;;;;;;;;;;19.71;49.10;102270.13;5045146;28;19924;-53
2022/07/18 06:02:43;;;;;;;;;;;;;;;19.70;49.24;102258.63;5060144;28;19915;-53
2022/07/18 06:05:09;;;;;;;;;;;;;;;19.70;49.20;102268.44;5054029;28;19912;-55
2022/07/18 06:07:34;;;;;;;;;;;;;;;19.70;49.15;102258.63;5058640;28;19924;-52
2022/07/18 06:10:00;;;;;;;;;;;;;;;19.71;49.17;102264.81;5056529;28;19955;-54
2022/07/18 06:12:28;;;;;;;;;;;;;;;19.73;49.07;102262.88;5058003;28;19912;-54
2022/07/18 06:14:53;;;;;;;;;;;;;;;19.74;48.69;102261.91;5057413;28;19912;-56
2022/07/18 06:17:19;;;;;;;;;;;;;;;19.75;48.93;102261.78;5055024;28;19923;-54
2022/07/18 06:19:44;;;;;;;;;;;;;;;19.76;48.94;102258.16;5029446;28;19921;-55
2022/07/18 06:22:09;;;;;;;;;;;;;;;19.78;48.78;102261.56;5052351;28;19976;-55
2022/07/18 06:24:35;;;;;;;;;;;;;;;19.80;48.36;102259.66;5048585;28;19915;-53
2022/07/18 06:27:01;;;;;;;;;;;;;;;19.83;48.62;102263.06;5042873;28;19921;-55
2022/07/18 06:29:26;;;;;;;;;;;;;;;19.86;48.19;102252.16;5051356;28;19947;-55
2022/07/18 06:31:52;;;;;;;;;;;;;;;19.89;48.32;102251.97;5046260;28;20371;-56
2022/07/18 06:34:17;;;;;;;;;;;;;;;19.92;48.33;102255.25;5035173;28;20276;-55
2022/07/18 06:36:42;;;;;;;;;;;;;;;19.96;48.17;102250.53;5052537;28;19952;-55
2022/07/18 06:39:11;;;;;;;;;;;;;;;20.00;47.75;102252.03;5048535;28;19917;-55
2022/07/18 06:41:39;;;;;;;;;;;;;;;20.02;47.50;102252.75;5051883;28;19917;-54
2022/07/18 06:44:05;;;;;;;;;;;;;;;20.05;47.71;102244.50;5048813;28;19924;-55
2022/07/18 06:46:30;;;;;;;;;;;;;;;20.07;47.61;102247.91;5048042;28;19917;-54
2022/07/18 06:48:55;;;;;;;;;;;;;;;20.12;47.38;102252.91;5051652;28;20443;-56
2022/07/18 06:51:21;;;;;;;;;;;;;;;20.15;47.19;102244.66;5045768;28;20302;-53
2022/07/18 06:53:46;;;;;;;;;;;;;;;20.22;47.40;102258.41;5055047;28;20000;-56
2022/07/18 06:56:11;;;;;;;;;;;;;;;20.28;47.18;102257.09;5048049;28;20426;-55
2022/07/18 06:58:37;;;;;;;;;;;;;;;20.33;47.24;102254.94;5052323;28;20269;-56
2022/07/18 07:01:02;;;;;;;;;;;;;;;20.36;47.04;102250.22;5045617;28;19916;-55
2022/07/18 07:03:27;;;;;;;;;;;;;;;20.40;47.19;102242.84;5052224;28;19916;-55
2022/07/18 07:05:53;;;;;;;;;;;;;;;20.45;46.82;102242.47;5050377;28;19956;-55
2022/07/18 07:08:18;;;;;;;;;;;;;;;20.48;46.85;102247.59;5051416;28;19975;-55
2022/07/18 07:10:43;;;;;;;;;;;;;;;20.52;47.07;102243.69;5050955;28;19929;-55
2022/07/18 07:13:08;;;;;;;;;;;;;;;20.59;46.99;102247.63;5051452;28;19913;-55
2022/07/18 07:15:34;;;;;;;;;;;;;;;20.62;47.06;102250.06;5057095;28;20005;-55
2022/07/18 07:17:59;;;;;;;;;;;;;;;20.69;46.81;102255.78;5044613;28;19913;-56
2022/07/18 07:20:25;;;;;;;;;;;;;;;20.73;46.56;102262.59;5051135;28;19965;-56
2022/07/18 07:22:53;;;;;;;;;;;;;;;20.76;46.77;102264.22;5053558;28;19998;-58
2022/07/18 07:25:19;;;;;;;;;;;;;;;20.78;46.65;102252.44;5059996;28;20030;-53
2022/07/18 07:27:44;;;;;;;;;;;;;;;20.82;46.51;102255.69;5050317;28;20323;-53
2022/07/18 07:30:10;;;;;;;;;;;;;;;20.89;46.47;102258.75;5046807;28;19913;-54
2022/07/18 07:32:37;;;;;;;;;;;;;;;20.95;46.48;102261.78;5050355;28;19913;-53
2022/07/18 07:35:03;;;;;;;;;;;;;;;20.98;46.59;102256.22;5051354;28;19958;-53
2022/07/18 07:37:28;;;;;;;;;;;;;;;21.02;46.59;102265.72;5049833;28;20323;-54
2022/07/18 07:39:54;;;;;;;;;;;;;;;21.06;46.23;102257.44;5052210;28;19919;-54
2022/07/18 07:42:19;;;;;;;;;;;;;;;21.07;45.83;102251.13;5047692;28;19959;-53
2022/07/18 07:44:45;;;;;;;;;;;;;;;21.10;45.95;102242.88;5052214;28;20311;-57
2022/07/18 07:47:10;;;;;;;;;;;;;;;21.12;45.91;102246.25;5046031;28;19925;-54
2022/07/18 07:49:38;;;;;;;;;;;;;;;21.13;45.74;102250.63;5051960;28;19952;-55
2022/07/18 07:52:04;;;;;;;;;;;;;;;21.14;45.58;102244.31;5054189;28;19919;-53
2022/07/18 07:54:29;;;;;;;;;;;;;;;21.16;45.51;102239.69;5054456;28;19912;-55
2022/07/18 07:56:54;;;;;;;;;;;;;;;21.17;45.64;102244.06;5050843;28;19924;-55
2022/07/18 07:59:19;;;;;;;;;;;;;;;21.21;45.35;102240.19;5044061;28;20280;-54
2022/07/18 08:01:45;;;;;;;;;;;;;;;21.25;45.44;102244.28;5048594;28;20326;-54
2022/07/18 08:04:10;;;;;;;;;;;;;;;21.30;45.36;102238.59;5048120;28;20338;-55
2022/07/18 08:06:35;;;;;;;;;;;;;;;21.35;45.31;102241.72;5041598;28;19967;-54
2022/07/18 08:09:01;;;;;;;;;;;;;;;21.41;45.07;102237.72;5054604;28;20442;-54
2022/07/18 08:11:26;;;;;;;;;;;;;;;21.43;45.15;102238.44;5059956;28;19966;-54
2022/07/18 08:13:51;;;;;;;;;;;;;;;21.43;44.99;102233.94;5055597;28;19905;-54
2022/07/18 08:16:17;;;;;;;;;;;;;;;21.44;45.06;102240.13;5060328;28;20412;-54
2022/07/18 08:18:42;;;;;;;;;;;;;;;21.46;45.22;102232.84;5054166;28;19916;-54
2022/07/18 08:21:07;;;;;;;;;;;;;;;21.48;44.87;102223.69;5047751;28;19913;-54
2022/07/18 08:23:33;;;;;;;;;;;;;;;21.52;45.04;102226.13;5057119;28;19917;-55
2022/07/18 08:25:58;;;;;;;;;;;;;;;21.54;44.87;102227.72;5052701;28;19916;-55
2022/07/18 08:28:24;;;;;;;;;;;;;;;21.59;44.76;102216.63;5056739;28;19941;-54
2022/07/18 08:30:49;;;;;;;;;;;;;;;21.64;44.86;102218.97;5047106;28;19917;-54
2022/07/18 08:33:15;;;;;;;;;;;;;;;21.67;44.46;102229.44;5043619;28;19913;-55
2022/07/18 08:35:40;;;;;;;;;;;;;;;21.69;44.73;102238.19;5051274;28;19908;-53
2022/07/18 08:38:05;;;;;;;;;;;;;;;21.73;44.28;102234.28;5044218;28;19930;-57
2022/07/18 08:40:31;;;;;;;;;;;;;;;21.80;44.13;102226.56;5038652;28;19924;-54
2022/07/18 08:42:57;;;;;;;;;;;;;;;21.84;43.92;102228.91;5051743;28;19931;-56
2022/07/18 08:45:23;;;;;;;;;;;;;;;21.87;43.86;102220.59;5049797;28;19986;-53
2022/07/18 08:47:49;;;;;;;;;;;;;;;21.89;43.88;102226.69;5048288;28;20340;-56
2022/07/18 08:50:14;;;;;;;;;;;;;;;21.93;43.82;102219.25;5050463;28;19927;-55
2022/07/18 08:52:40;;;;;;;;;;;;;;;22.00;43.64;102230.31;5050577;28;19913;-54
2022/07/18 08:55:07;;;;;;;;;;;;;;;22.04;43.77;102226.38;5049556;28;19912;-59
2022/07/18 08:57:32;;;;;;;;;;;;;;;22.04;43.28;102229.06;5050541;28;19912;-55
2022/07/18 08:59:57;;;;;;;;;;;;;;;22.05;43.17;102230.75;5051482;28;19974;-54
2022/07/18 09:02:26;;;;;;;;;;;;;;;22.06;43.20;102227.97;5046232;28;19967;-56
2022/07/18 09:04:51;;;;;;;;;;;;;;;22.10;43.45;102231.22;5044304;28;19923;-53
2022/07/18 09:07:24;;;;;;;;;;;;;;;22.14;43.47;102224.66;5052839;28;19921;-57
2022/07/18 09:09:54;;;;;;;;;;;;;;;22.20;43.30;102231.31;5055816;28;20447;-53
2022/07/18 09:12:20;;;;;;;;;;;;;;;22.23;43.48;102231.06;5060192;28;19914;-53
2022/07/18 09:14:46;;;;;;;;;;;;;;;22.28;43.22;102225.31;5059627;28;20364;-53
2022/07/18 09:17:18;;;;;;;;;;;;;;;22.33;43.15;102229.28;5054460;28;19963;-53
2022/07/18 09:19:59;;;;;;;;;;;;;;;22.39;43.20;102219.88;5046641;28;20256;-56
2022/07/18 09:22:25;;;;;;;;;;;;;;;22.47;42.89;102217.41;5054230;28;19966;-53
2022/07/18 09:25:07;;;;;;;;;;;;;;;22.53;42.84;102208.84;5045469;28;19996;-61
2022/07/18 09:27:33;;;;;;;;;;;;;;;22.62;42.71;102211.72;5050285;28;20296;-53
2022/07/18 09:30:08;;;;;;;;;;;;;;;22.73;42.70;102217.00;5051406;28;20376;-53
2022/07/18 09:32:33;;;;;;;;;;;;;;;22.82;42.63;102221.56;5049924;28;20534;-53
2022/07/18 09:35:04;;;;;;;;;;;;;;;22.88;42.37;102213.97;5037628;28;19921;-53
2022/07/18 09:37:30;;;;;;;;;;;;;;;22.93;42.32;102211.72;5052053;28;19998;-54
2022/07/18 09:40:13;;;;;;;;;;;;;;;23.00;42.31;102215.59;5050490;28;20020;-53
2022/07/18 09:42:38;;;;;;;;;;;;;;;23.06;41.92;102217.75;5052051;28;19912;-52
2022/07/18 09:45:04;;;;;;;;;;;;;;;23.12;42.22;102217.19;5049777;28;19942;-54
2022/07/18 09:47:29;;;;;;;;;;;;;;;23.18;42.02;102217.63;5052435;28;20407;-53
2022/07/18 09:49:54;;;;;;;;;;;;;;;23.21;41.64;102214.72;5051992;28;20291;-56
2022/07/18 09:52:20;;;;;;;;;;;;;;;23.24;41.48;102215.28;5056205;28;19962;-53
2022/07/18 09:54:45;;;;;;;;;;;;;;;23.26;41.47;102217.81;5052365;28;19924;-53
2022/07/18 09:57:23;;;;;;;;;;;;;;;23.25;41.37;102218.81;5053374;28;19913;-53
2022/07/18 09:59:48;;;;;;;;;;;;;;;23.29;41.29;102221.06;5050752;28;20496;-54
2022/07/18 10:02:13;;;;;;;;;;;;;;;23.34;41.17;102220.69;5042699;28;19916;-56
2022/07/18 10:04:39;;;;;;;;;;;;;;;23.39;40.80;102217.59;5052361;28;19935;-55
2022/07/18 10:07:05;;;;;;;;;;;;;;;23.43;40.70;102219.84;5050775;28;20003;-55
2022/07/18 10:09:32;;;;;;;;;;;;;;;23.49;40.58;102212.25;5038409;28;19917;-56
2022/07/18 10:11:58;;;;;;;;;;;;;;;23.58;40.41;102211.41;5046398;28;19920;-56
2022/07/18 10:14:25;;;;;;;;;;;;;;;23.66;40.12;102225.00;5037094;28;19913;-56
2022/07/18 10:16:51;;;;;;;;;;;;;;;23.76;40.07;102214.22;5046347;28;19913;-55
2022/07/18 10:19:16;;;;;;;;;;;;;;;23.85;39.55;102210.72;5054359;28;19924;-54
2022/07/18 10:21:45;;;;;;;;;;;;;;;23.89;39.57;102206.78;5052360;28;19916;-54
2022/07/18 10:24:10;;;;;;;;;;;;;;;23.97;39.64;102214.16;5049890;28;19920;-56
2022/07/18 10:26:36;;;;;;;;;;;;;;;24.09;39.70;102216.69;5049880;28;19970;-56
2022/07/18 10:29:01;;;;;;;;;;;;;;;24.18;39.28;102213.16;5054380;28;20450;-57
2022/07/18 10:31:27;;;;;;;;;;;;;;;24.19;39.40;102213.03;5037725;28;19928;-56
2022/07/18 10:34:08;;;;;;;;;;;;;;;24.24;39.57;102211.72;5048804;28;19923;-58
2022/07/18 10:36:34;;;;;;;;;;;;;;;24.32;39.53;102210.00;5049248;28;19963;-55
2022/07/18 10:39:06;;;;;;;;;;;;;;;24.40;39.43;102208.47;5052266;28;19966;-54
2022/07/18 10:41:32;;;;;;;;;;;;;;;24.47;39.37;102206.88;5053054;28;19920;-54
2022/07/18 10:43:57;;;;;;;;;;;;;;;24.54;39.14;102212.50;5047730;28;20321;-58
2022/07/18 10:46:22;;;;;;;;;;;;;;;24.53;39.33;102197.38;5042434;28;19923;-54
2022/07/18 10:48:48;;;;;;;;;;;;;;;24.55;39.28;102206.13;5053227;28;19947;-56
2022/07/18 10:51:18;;;;;;;;;;;;;;;24.56;39.10;102200.63;5049696;28;19974;-56
2022/07/18 10:54:18;;;;;;;;;;;;;;;24.57;39.18;102198.78;5054510;28;20280;-56
2022/07/18 10:56:44;;;;;;;;;;;;;;;24.59;39.22;102200.31;4991822;28;20344;-56
2022/07/18 10:59:16;;;;;;;;;;;;;;;24.63;39.14;102200.91;5035397;28;19913;-54
2022/07/18 11:01:48;;;;;;;;;;;;;;;24.66;39.05;102198.75;5049139;28;20398;-53
2022/07/18 11:04:33;;;;;;;;;;;;;;;24.69;38.87;102199.47;5048257;28;19997;-57
2022/07/18 11:07:15;;;;;;;;;;;;;;;24.71;38.90;102197.50;5055483;28;19913;-56
2022/07/18 11:09:44;;;;;;;;;;;;;;;24.76;38.73;102195.19;5048519;28;19956;-56
2022/07/18 11:12:26;;;;;;;;;;;;;;;24.81;38.79;102199.13;5033563;28;19931;-55
2022/07/18 11:15:00;;;;;;;;;;;;;;;24.87;38.64;102194.16;5051475;28;19923;-58
2022/07/18 11:17:44;;;;;;;;;;;;;;;24.88;38.65;102185.94;5047807;28;20395;-56
2022/07/18 11:20:25;;;;;;;;;;;;;;;24.90;38.57;102183.94;5053368;28;19909;-56
2022/07/18 11:22:50;;;;;;;;;;;;;;;24.97;38.81;102181.50;5051032;28;19913;-55
2022/07/18 11:25:18;;;;;;;;;;;;;;;25.03;38.62;102190.84;5053682;28;19908;-55
2022/07/18 11:27:44;;;;;;;;;;;;;;;25.07;38.39;102187.72;5055732;28;19924;-56
2022/07/18 11:30:10;;;;;;;;;;;;;;;25.09;38.41;102176.78;5049566;28;19917;-56
2022/07/18 11:32:35;;;;;;;;;;;;;;;25.13;38.62;102180.00;5052255;28;19932;-56
2022/07/18 11:35:05;;;;;;;;;;;;;;;25.14;38.54;102182.56;5048516;28;19920;-56
2022/07/18 11:37:31;;;;;;;;;;;;;;;25.17;38.40;102176.03;5054341;28;19923;-55
2022/07/18 11:40:03;;;;;;;;;;;;;;;25.20;38.42;102175.72;5050202;28;19916;-56
2022/07/18 11:42:36;;;;;;;;;;;;;;;25.21;38.33;102177.44;5051450;28;20288;-55
2022/07/18 11:45:02;;;;;;;;;;;;;;;25.22;38.48;102169.19;5055645;28;19951;-55
2022/07/18 11:47:27;;;;;;;;;;;;;;;25.23;38.44;102170.88;5053587;28;20372;-57
2022/07/18 11:49:55;;;;;;;;;;;;;;;25.24;38.25;102166.34;5057246;28;19920;-58
2022/07/18 11:52:21;;;;;;;;;;;;;;;25.18;38.08;102162.44;5054525;28;20087;-59
2022/07/18 11:54:46;;;;;;;;;;;;;;;25.13;38.35;102156.63;5054057;28;20020;-56
2022/07/18 11:57:11;;;;;;;;;;;;;;;25.10;38.56;102165.00;5052123;28;20356;-59
2022/07/18 11:59:38;;;;;;;;;;;;;;;25.09;38.55;102153.41;5058338;28;20310;-56
2022/07/18 12:02:04;;;;;;;;;;;;;;;25.09;38.43;102155.22;5052236;28;19921;-56
2022/07/18 12:04:29;;;;;;;;;;;;;;;25.09;38.37;102158.78;5056788;28;19920;-55
2022/07/18 12:07:13;;;;;;;;;;;;;;;25.11;38.40;102155.94;5046969;28;19921;-57
2022/07/18 12:09:38;;;;;;;;;;;;;;;25.16;38.29;102153.66;5053704;28;19921;-54
2022/07/18 12:12:09;;;;;;;;;;;;;;;25.23;38.21;102149.34;5051460;28;19917;-55
2022/07/18 12:14:35;;;;;;;;;;;;;;;25.29;38.24;102152.44;5050054;28;19913;-53
2022/07/18 12:17:00;;;;;;;;;;;;;;;25.36;38.19;102151.66;5052420;28;19962;-53
2022/07/18 12:19:33;;;;;;;;;;;;;;;25.46;37.98;102142.69;5055393;28;19912;-54
2022/07/18 12:22:10;;;;;;;;;;;;;;;25.50;37.85;102134.13;5054880;28;19990;-53
2022/07/18 12:24:37;;;;;;;;;;;;;;;25.51;37.88;102133.13;5056381;28;19912;-58
2022/07/18 12:27:13;;;;;;;;;;;;;;;25.60;37.74;102138.63;5058529;28;19920;-55
2022/07/18 12:29:54;;;;;;;;;;;;;;;25.63;37.77;102138.31;5059265;28;20369;-55
2022/07/18 12:32:24;;;;;;;;;;;;;;;25.67;37.88;102134.28;5051498;28;19916;-57